Main page
Satellite images 10-day forecastsClimateMarine weather Cyclones Lightning AirportsFAQ Newsletter About
Weather : Europe Africa North America South America Asia Australia-Oceania Others
Languages Contact

Cologne, Germany

Cologne Bonn Airport

latitude: 50-52N, longitude: 007-10E, elevation: 91 m


METAR: EDDK 280250Z 20007KT CAVOK 12/08 Q1005 NOSIG
TAF: EDDK 272300Z 2800/2906 23008KT 9999 SCT030 BECMG 2807/2809 25015G25KT

Time: 05:24 (03:24 UTC)

Current weather observation

The report was made 34 minutes ago, at 02:50 UTC
Wind 7 kt from the South/Southwest
Temperature 12°C
Humidity 76%
Pressure 1005 hPa
Visibility 10 km or more
no clouds below 1500 m and no cumulonimbus

Change units

Forecast

The report was made 4 hours and 24 minutes ago, at 23:00 UTC
Forecast valid from 28 at 00 UTC to 29 at 06 UTC
Wind 8 kt from the Southwest
Visibility 10 km or more
Scattered clouds at a height of 3000 ft
Becoming
from 28 at 07 UTC to 28 at 09 UTC
Wind 15 kt from the West/Southwest with gusts up to 25 kt
The information on this site is subject to a disclaimer
Weather : Europe Africa North America South America Asia Australia-Oceania Others
Satellite images 10-day forecastsClimateMarine weather Cyclones Lightning AirportsFAQ Languages Contact Newsletter About